ウルムチ の空港の天気 - METARとTAF

ウルムチ地窩堡国際空港 ( ZWWW / URC ) - 中国 新疆ウイグル自治区ウルムチ市
飛行場実況気象(Metar)
観測時間01/17 03:30 CST (01/16 19:30 UTC)
風向・風速南西 2m/s
視程2500m
天気現象もや
なし
気温-12℃
湿度85%
気圧1022hPa
METARZWWW 161930Z 22002MPS 2500 BR NSC M12/M14 Q1022 NOSIG
過去の天気等 Google飛行場航空写真 Wunderground天気予報

過去48時間のMETAR

飛行場予報(TAF)
発表時間: 1/16 23:04 CST (1/16 15:04 UTC)
予報対象時間: 17日2時 CST ~ 18日2時 CST
風向・風速北 2m/s
視程1600m
天気現象もや
なし
17日5時 CST ~ 17日6時 CST に徐々に
視程1100m
17日14時 CST ~ 17日15時 CST に徐々に
視程1600m
TAF ZWWW 161504Z 1618/1718 36002MPS 1600 BR NSC TXM08/1708Z TNM15/1623Z
BECMG 1621/1622 1100
BECMG 1706/1707 1600